| time (UTC) | temp C | wind direction | speed KPH | gust KPH | rain 1hr cm | rain 24hr cm | rain mn cm | humidity % | barometer mb |
| 20260510130651 | 20 | 26 | 6.4 | 19.3 | 0.00 | 0.00 | 0.00 | 100 | 1002.3 |
| 20260510130151 | 20 | 330 | 8.0 | 19.3 | 0.00 | 0.00 | 0.00 | 100 | 1002.2 |
| 20260510125652 | 20 | 29 | 6.4 | 14.5 | 0.00 | 0.00 | 0.00 | 100 | 1002.1 |
| 20260510125151 | 20 | 355 | 4.8 | 14.5 | 0.00 | 0.00 | 0.00 | 99 | 1002.2 |
| 20260510124651 | 20 | 5 | 4.8 | 14.5 | 0.00 | 0.00 | 0.00 | 98 | 1008.4 |
| 20260510124414 | 20 | 19 | 4.8 | 14.5 | 0.00 | 0.00 | 0.00 | 97 | 1002.3 |
| 20260510123651 | 20 | 5 | 4.8 | 9.7 | 0.00 | 0.00 | 0.00 | 97 | 1002.3 |
| 20260510123151 | 20 | 24 | 6.4 | 14.5 | 0.00 | 0.00 | 0.00 | 97 | 1002.2 |
| 20260510122915 | 20 | 333 | 6.4 | 16.1 | 0.00 | 0.00 | 0.00 | 95 | 1002.3 |
| 20260510122700 | 20 | 333 | 6.4 | 16.1 | 0.00 | 0.00 | 0.00 | 95 | 1002.3 |
| 20260510122153 | 20 | 355 | 8.0 | 16.1 | 0.00 | 0.00 | 0.00 | 96 | 1002.3 |
| 20260510121651 | 20 | 0 | 9.7 | 19.3 | 0.00 | 0.00 | 0.00 | 93 | 1002.4 |
| 20260510121152 | 20 | 32 | 9.7 | 19.3 | 0.00 | 0.00 | 0.00 | 92 | 1002.3 |
| 20260510120651 | 21 | 348 | 6.4 | 16.1 | 0.00 | 0.00 | 0.00 | 92 | 1002.4 |
| 20260510120151 | 21 | 16 | 4.8 | 16.1 | 0.00 | 0.00 | 0.00 | 94 | 1002.5 |
| 20260510115920 | 22 | 348 | 4.8 | 9.7 | 0.00 | 0.00 | 0.00 | 92 | 1002.5 |
| 20260510115152 | 22 | 12 | 8.0 | 17.7 | 0.00 | 0.00 | 0.00 | 93 | 1002.6 |
| 20260510114651 | 22 | 5 | 8.0 | 17.7 | 0.00 | 0.00 | 0.00 | 92 | 1002.5 |
| 20260510114419 | 22 | 337 | 4.8 | 14.5 | 0.00 | 0.00 | 0.00 | 93 | 1002.6 |
| 20260510113652 | 22 | 287 | 4.8 | 16.1 | 0.00 | 0.00 | 0.00 | 94 | 1002.7 |
| 20260510113417 | 21 | 302 | 6.4 | 16.1 | 0.00 | 0.00 | 0.00 | 92 | 1002.7 |
| 20260510112653 | 21 | 331 | 9.7 | 20.9 | 0.00 | 0.00 | 0.00 | 92 | 1002.8 |
| 20260510112152 | 22 | 306 | 9.7 | 20.9 | 0.00 | 0.00 | 0.00 | 91 | 1002.8 |
| 20260510111152 | 22 | 171 | 11.3 | 20.9 | 0.00 | 0.00 | 0.00 | 90 | 1003.0 |
| 20260510110651 | 22 | 148 | 12.9 | 22.5 | 0.00 | 0.00 | 0.00 | 88 | 1003.2 |
| 20260510110151 | 22 | 128 | 11.3 | 22.5 | 0.00 | 0.00 | 0.00 | 90 | 1003.2 |
| 20260510105652 | 22 | 169 | 11.3 | 27.4 | 0.00 | 0.00 | 0.00 | 89 | 1003.3 |
| 20260510104651 | 22 | 108 | 11.3 | 20.9 | 0.00 | 0.00 | 0.00 | 93 | 1003.5 |
| 20260510104151 | 21 | 150 | 16.1 | 33.8 | 0.00 | 0.00 | 0.00 | 92 | 1003.5 |
| 20260510103651 | 21 | 249 | 17.7 | 33.8 | 0.00 | 0.00 | 0.00 | 92 | 1003.4 |
| 20260510103414 | 21 | 172 | 19.3 | 32.2 | 0.00 | 0.00 | 0.00 | 91 | 1003.5 |
| 20260510102920 | 21 | 130 | 16.1 | 32.2 | 0.00 | 0.00 | 0.00 | 91 | 1003.4 |
| 20260510102151 | 21 | 109 | 16.1 | 32.2 | 0.00 | 0.00 | 0.00 | 91 | 1003.5 |
| 20260510101651 | 21 | 145 | 12.9 | 32.2 | 0.00 | 0.00 | 0.00 | 92 | 1003.5 |
| 20260510101151 | 21 | 103 | 8.0 | 22.5 | 0.00 | 0.00 | 0.00 | 93 | 1003.5 |
| 20260510100651 | 21 | 167 | 6.4 | 17.7 | 0.00 | 0.00 | 0.00 | 93 | 1003.5 |
| 20260510100151 | 21 | 209 | 6.4 | 17.7 | 0.00 | 0.00 | 0.00 | 93 | 1003.5 |
| 20260510095922 | 21 | 213 | 6.4 | 25.7 | 0.00 | 0.00 | 0.00 | 93 | 1003.5 |
| 20260510095152 | 21 | 187 | 11.3 | 25.7 | 0.00 | 0.00 | 0.00 | 94 | 1003.5 |
| 20260510094917 | 21 | 156 | 14.5 | 27.4 | 0.00 | 0.00 | 0.00 | 92 | 1003.5 |
| 20260510094152 | 21 | 151 | 14.5 | 27.4 | 0.00 | 0.00 | 0.00 | 92 | 1003.5 |
| 20260510093651 | 21 | 142 | 12.9 | 25.7 | 0.00 | 0.00 | 0.00 | 93 | 1003.6 |
| 20260510093412 | 21 | 139 | 9.7 | 25.7 | 0.00 | 0.00 | 0.00 | 92 | 1003.6 |
| 20260510092908 | 21 | 130 | 9.7 | 24.1 | 0.00 | 0.00 | 0.00 | 93 | 1003.6 |
| 20260510092149 | 21 | 193 | 11.3 | 24.1 | 0.00 | 0.00 | 0.00 | 93 | 1003.6 |
| 20260510091649 | 21 | 185 | 11.3 | 24.1 | 0.00 | 0.00 | 0.00 | 94 | 1003.5 |
| 20260510090647 | 21 | 225 | 11.3 | 24.1 | 0.00 | 0.00 | 0.00 | 94 | 1003.6 |
| 20260510090411 | 21 | 223 | 9.7 | 24.1 | 0.00 | 0.00 | 0.00 | 94 | 1003.6 |
| 20260510085647 | 21 | 166 | 9.7 | 22.5 | 0.00 | 0.00 | 0.00 | 95 | 1003.6 |
| 20260510084647 | 20 | 202 | 11.3 | 22.5 | 0.00 | 0.00 | 0.00 | 96 | 1003.7 |
| 20260510084408 | 20 | 200 | 12.9 | 33.8 | 0.00 | 0.00 | 0.00 | 96 | 1003.6 |
| 20260510083647 | 20 | 192 | 14.5 | 33.8 | 0.00 | 0.00 | 0.00 | 97 | 1003.6 |
| 20260510083405 | 20 | 180 | 11.3 | 25.7 | 0.00 | 0.00 | 0.00 | 97 | 1003.5 |
| 20260510082647 | 20 | 173 | 11.3 | 25.7 | 0.00 | 0.00 | 0.00 | 98 | 1003.6 |
| 20260510081648 | 19 | 231 | 11.3 | 20.9 | 0.00 | 0.00 | 0.00 | 98 | 1003.6 |
| 20260510081407 | 19 | 199 | 11.3 | 24.1 | 0.00 | 0.00 | 0.00 | 98 | 1003.5 |
| 20260510080648 | 19 | 245 | 11.3 | 24.1 | 0.00 | 0.00 | 0.00 | 98 | 1009.6 |
| 20260510080148 | 19 | 162 | 11.3 | 22.5 | 0.00 | 0.00 | 0.00 | 98 | 1003.4 |
| 20260510075648 | 19 | 184 | 9.7 | 22.5 | 0.00 | 0.00 | 0.00 | 99 | 1003.4 |
| 20260510075148 | 19 | 194 | 8.0 | 20.9 | 0.00 | 0.00 | 0.00 | 99 | 1003.3 |
| 20260510074648 | 19 | 178 | 9.7 | 20.9 | 0.00 | 0.00 | 0.00 | 99 | 1003.3 |
| 20260510074418 | 19 | 147 | 11.3 | 20.9 | 0.00 | 0.00 | 0.00 | 99 | 1003.3 |
| 20260510073647 | 19 | 192 | 12.9 | 20.9 | 0.00 | 0.00 | 0.00 | 99 | 1003.1 |
| 20260510073148 | 19 | 194 | 12.9 | 17.7 | 0.00 | 0.00 | 0.00 | 100 | 1003.1 |
| 20260510072647 | 18 | 204 | 14.5 | 27.4 | 0.00 | 0.00 | 0.00 | 100 | 1003.0 |
| 20260510072147 | 18 | 157 | 16.1 | 27.4 | 0.00 | 0.00 | 0.00 | 100 | 1002.9 |
| 20260510071647 | 18 | 192 | 16.1 | 25.7 | 0.00 | 0.00 | 0.00 | 100 | 1002.9 |
| 20260510071147 | 18 | 226 | 16.1 | 29.0 | 0.00 | 0.00 | 0.00 | 100 | 1002.8 |
| 20260510070647 | 18 | 223 | 16.1 | 29.0 | 0.00 | 0.00 | 0.00 | 100 | 1002.8 |
| 20260510070148 | 18 | 166 | 16.1 | 27.4 | 0.00 | 0.00 | 0.00 | 100 | 1002.6 |
| 20260510065648 | 18 | 170 | 14.5 | 27.4 | 0.00 | 0.00 | 0.00 | 100 | 1002.6 |
| 20260510065404 | 18 | 157 | 12.9 | 25.7 | 0.00 | 0.00 | 0.00 | 100 | 1002.6 |
| 20260510064648 | 18 | 232 | 11.3 | 25.7 | 0.00 | 0.00 | 0.00 | 100 | 1002.4 |
| 20260510064405 | 18 | 202 | 12.9 | 25.7 | 0.00 | 0.00 | 0.00 | 100 | 1002.6 |
| 20260510063648 | 18 | 169 | 14.5 | 25.7 | 0.00 | 0.00 | 0.00 | 100 | 1002.5 |
| 20260510063148 | 17 | 192 | 12.9 | 25.7 | 0.00 | 0.00 | 0.00 | 100 | 1002.5 |
| 20260510062648 | 17 | 189 | 12.9 | 24.1 | 0.00 | 0.00 | 0.00 | 100 | 1002.4 |
| 20260510062148 | 17 | 180 | 11.3 | 24.1 | 0.00 | 0.00 | 0.00 | 100 | 1002.3 |
| 20260510061148 | 17 | 203 | 12.9 | 24.1 | 0.00 | 0.00 | 0.00 | 100 | 1008.6 |
| 20260510060648 | 17 | 168 | 12.9 | 24.1 | 0.00 | 0.00 | 0.00 | 100 | 1002.2 |
| 20260510060147 | 17 | 196 | 16.1 | 27.4 | 0.00 | 0.00 | 0.00 | 100 | 1002.1 |
| 20260510055147 | 17 | 150 | 16.1 | 25.7 | 0.00 | 0.00 | 0.00 | 100 | 1002.1 |
| 20260510054414 | 17 | 181 | 17.7 | 29.0 | 0.00 | 0.00 | 0.00 | 100 | 1002.1 |
| 20260510053648 | 17 | 150 | 16.1 | 24.1 | 0.00 | 0.00 | 0.00 | 100 | 1002.1 |
| 20260510053148 | 17 | 171 | 12.9 | 24.1 | 0.00 | 0.00 | 0.00 | 100 | 1002.1 |
| 20260510052148 | 17 | 167 | 14.5 | 24.1 | 0.00 | 0.00 | 0.00 | 100 | 1002.1 |
| 20260510051648 | 17 | 180 | 14.5 | 24.1 | 0.00 | 0.00 | 0.00 | 99 | 1002.0 |
| 20260510051148 | 17 | 166 | 14.5 | 25.7 | 0.00 | 0.00 | 0.00 | 99 | 1001.9 |
| 20260510050647 | 17 | 167 | 16.1 | 29.0 | 0.00 | 0.00 | 0.00 | 99 | 1001.9 |
| 20260510050147 | 17 | 163 | 16.1 | 29.0 | 0.00 | 0.00 | 0.00 | 98 | 1002.0 |
| 20260510045147 | 17 | 166 | 12.9 | 24.1 | 0.00 | 0.00 | 0.00 | 98 | 1001.9 |
| 20260510044147 | 17 | 161 | 9.7 | 17.7 | 0.00 | 0.00 | 0.00 | 98 | 1002.0 |
| 20260510043648 | 17 | 119 | 9.7 | 17.7 | 0.00 | 0.00 | 0.00 | 98 | 1002.0 |
| 20260510043148 | 17 | 128 | 9.7 | 16.1 | 0.00 | 0.00 | 0.00 | 99 | 1002.0 |
| 20260510042647 | 17 | 139 | 9.7 | 17.7 | 0.00 | 0.00 | 0.00 | 99 | 1002.0 |
| 20260510042147 | 17 | 115 | 11.3 | 17.7 | 0.00 | 0.00 | 0.00 | 99 | 1002.0 |
| 20260510041647 | 17 | 137 | 14.5 | 25.7 | 0.00 | 0.00 | 0.00 | 100 | 1002.0 |
| 20260510041147 | 17 | 169 | 16.1 | 25.7 | 0.00 | 0.00 | 0.00 | 99 | 1002.1 |
| 20260510040647 | 17 | 177 | 14.5 | 22.5 | 0.00 | 0.00 | 0.00 | 99 | 1002.1 |
| 20260510040148 | 17 | 171 | 12.9 | 25.7 | 0.00 | 0.00 | 0.00 | 100 | 1002.1 |
| 20260510035647 | 17 | 128 | 12.9 | 25.7 | 0.00 | 0.00 | 0.00 | 100 | 1002.1 |
| 20260510035147 | 17 | 186 | 12.9 | 22.5 | 0.00 | 0.00 | 0.00 | 100 | 1002.1 |
| 20260510034647 | 18 | 157 | 12.9 | 20.9 | 0.00 | 0.00 | 0.00 | 100 | 1002.1 |
| 20260510034147 | 18 | 153 | 11.3 | 20.9 | 0.00 | 0.00 | 0.00 | 100 | 1002.1 |
| 20260510033649 | 18 | 182 | 11.3 | 19.3 | 0.00 | 0.00 | 0.00 | 100 | 1002.1 |
| 20260510033147 | 18 | 121 | 11.3 | 19.3 | 0.00 | 0.00 | 0.00 | 100 | 1002.1 |
| 20260510032648 | 18 | 178 | 12.9 | 19.3 | 0.00 | 0.00 | 0.00 | 100 | 1002.1 |
| 20260510032147 | 18 | 184 | 14.5 | 16.1 | 0.00 | 0.00 | 0.00 | 100 | 1002.0 |
| 20260510031647 | 18 | 177 | 14.5 | 24.1 | 0.00 | 0.00 | 0.00 | 99 | 1002.1 |
| 20260510031147 | 18 | 188 | 14.5 | 24.1 | 0.00 | 0.00 | 0.00 | 99 | 1002.0 |
| 20260510030907 | 18 | 163 | 16.1 | 27.4 | 0.00 | 0.00 | 0.00 | 99 | 1002.1 |
| 20260510030147 | 18 | 188 | 17.7 | 29.0 | 0.00 | 0.00 | 0.00 | 99 | 1002.0 |
| 20260510025648 | 18 | 186 | 14.5 | 29.0 | 0.00 | 0.00 | 0.00 | 99 | 1002.0 |
| 20260510025147 | 18 | 152 | 12.9 | 24.1 | 0.00 | 0.00 | 0.00 | 99 | 1001.9 |
| 20260510024647 | 18 | 171 | 9.7 | 17.7 | 0.00 | 0.00 | 0.00 | 99 | 1001.9 |
| 20260510024147 | 18 | 150 | 9.7 | 16.1 | 0.00 | 0.00 | 0.00 | 99 | 1002.0 |
| 20260510023647 | 18 | 135 | 9.7 | 16.1 | 0.00 | 0.00 | 0.00 | 99 | 1001.9 |
| 20260510023147 | 18 | 180 | 11.3 | 24.1 | 0.00 | 0.00 | 0.00 | 99 | 1001.9 |
| 20260510022904 | 18 | 166 | 9.7 | 24.1 | 0.00 | 0.00 | 0.00 | 99 | 1002.0 |
| 20260510022137 | 18 | 148 | 8.0 | 17.7 | 0.00 | 0.00 | 0.00 | 99 | 1002.0 |
| 20260510021638 | 18 | 188 | 9.7 | 14.5 | 0.00 | 0.00 | 0.00 | 99 | 1002.0 |
| 20260510021138 | 18 | 143 | 11.3 | 19.3 | 0.00 | 0.00 | 0.00 | 99 | 1002.1 |
| 20260510020638 | 18 | 178 | 11.3 | 19.3 | 0.00 | 0.00 | 0.00 | 99 | 1008.3 |
| 20260510020137 | 18 | 144 | 11.3 | 27.4 | 0.00 | 0.00 | 0.00 | 99 | 1002.1 |
| 20260510015637 | 18 | 112 | 11.3 | 27.4 | 0.00 | 0.00 | 0.00 | 99 | 1002.1 |
| 20260510015137 | 18 | 152 | 11.3 | 22.5 | 0.00 | 0.00 | 0.00 | 99 | 1002.0 |
| 20260510014637 | 18 | 184 | 11.3 | 25.7 | 0.00 | 0.00 | 0.00 | 99 | 1002.0 |
| 20260510014138 | 18 | 146 | 9.7 | 25.7 | 0.00 | 0.00 | 0.00 | 99 | 1002.0 |
| 20260510013638 | 18 | 167 | 9.7 | 17.7 | 0.00 | 0.00 | 0.00 | 100 | 1002.0 |
| 20260510013137 | 18 | 147 | 9.7 | 17.7 | 0.00 | 0.00 | 0.00 | 100 | 1002.0 |
| 20260510012638 | 18 | 168 | 11.3 | 17.7 | 0.00 | 0.00 | 0.00 | 100 | 1002.1 |
| 20260510012137 | 18 | 149 | 9.7 | 17.7 | 0.00 | 0.00 | 0.00 | 100 | 1002.1 |
| 20260510011638 | 18 | 171 | 8.0 | 20.9 | 0.00 | 0.00 | 0.00 | 100 | 1002.1 |
| 20260510011138 | 18 | 138 | 11.3 | 20.9 | 0.00 | 0.00 | 0.00 | 100 | 1002.2 |
| 20260510010637 | 18 | 145 | 14.5 | 30.6 | 0.00 | 0.00 | 0.00 | 100 | 1002.2 |
| 20260510010400 | 18 | 170 | 14.5 | 30.6 | 0.00 | 0.00 | 0.00 | 100 | 1002.2 |
| 20260510005638 | 18 | 171 | 17.7 | 17.7 | 0.00 | 0.00 | 0.00 | 100 | 1002.2 |
| 20260510005138 | 18 | 163 | 19.3 | 35.4 | 0.00 | 0.00 | 0.00 | 100 | 1002.2 |
| 20260510004138 | 18 | 132 | 16.1 | 38.6 | 0.00 | 0.00 | 0.00 | 100 | 1002.1 |
| 20260510003637 | 18 | 171 | 17.7 | 38.6 | 0.00 | 0.00 | 0.00 | 100 | 1002.0 |
| 20260510003138 | 18 | 155 | 16.1 | 29.0 | 0.00 | 0.00 | 0.00 | 100 | 1002.1 |
| 20260510002636 | 18 | 154 | 16.1 | 25.7 | 0.00 | 0.00 | 0.00 | 100 | 1002.0 |
| 20260510002137 | 18 | 157 | 16.1 | 35.4 | 0.00 | 0.00 | 0.00 | 100 | 1002.0 |
| 20260510001635 | 18 | 132 | 14.5 | 32.2 | 0.00 | 0.00 | 0.00 | 100 | 1008.3 |
| 20260510001135 | 19 | 150 | 14.5 | 32.2 | 0.00 | 0.00 | 0.00 | 100 | 1002.0 |
| 20260510000634 | 19 | 141 | 16.1 | 38.6 | 0.00 | 0.00 | 0.00 | 100 | 1002.0 |
| 20260510000132 | 19 | 171 | 17.7 | 38.6 | 0.00 | 0.00 | 0.00 | 100 | 1002.0 |
| 20260509235633 | 19 | 183 | 17.7 | 40.2 | 0.00 | 0.00 | 0.00 | 100 | 1002.1 |
| 20260509235134 | 19 | 98 | 17.7 | 40.2 | 0.00 | 0.00 | 0.00 | 100 | 1002.1 |
| 20260509234631 | 19 | 123 | 17.7 | 37.0 | 0.00 | 0.00 | 0.00 | 100 | 1002.1 |
| 20260509234125 | 19 | 169 | 16.1 | 30.6 | 0.00 | 0.00 | 0.00 | 100 | 1002.1 |
| 20260509233622 | 19 | 145 | 16.1 | 30.6 | 0.00 | 0.00 | 0.00 | 100 | 1002.1 |
| 20260509233121 | 19 | 172 | 16.1 | 29.0 | 0.00 | 0.00 | 0.00 | 100 | 1001.9 |
| 20260509232623 | 19 | 200 | 14.5 | 29.0 | 0.00 | 0.00 | 0.00 | 100 | 1002.0 |
| 20260509232133 | 19 | 186 | 12.9 | 19.3 | 0.00 | 0.00 | 0.00 | 100 | 1002.1 |
| 20260509231623 | 19 | 190 | 12.9 | 29.0 | 0.00 | 0.00 | 0.00 | 100 | 1002.1 |
| 20260509231120 | 19 | 105 | 12.9 | 29.0 | 0.00 | 0.00 | 0.00 | 100 | 1002.1 |
| 20260509230622 | 19 | 158 | 14.5 | 27.4 | 0.00 | 0.00 | 0.00 | 100 | 1002.2 |
| 20260509230121 | 19 | 174 | 11.3 | 24.1 | 0.00 | 0.00 | 0.00 | 100 | 1002.3 |
| 20260509225624 | 19 | 182 | 9.7 | 20.9 | 0.00 | 0.00 | 0.00 | 100 | 1002.4 |
| 20260509225121 | 19 | 128 | 9.7 | 20.9 | 0.00 | 0.00 | 0.00 | 100 | 1002.4 |
| 20260509224624 | 19 | 126 | 11.3 | 24.1 | 0.00 | 0.00 | 0.00 | 100 | 1002.4 |
| 20260509224120 | 19 | 145 | 12.9 | 24.1 | 0.00 | 0.00 | 0.00 | 100 | 1002.4 |
| 20260509223847 | 19 | 132 | 11.3 | 22.5 | 0.00 | 0.00 | 0.00 | 100 | 1002.4 |
| 20260509223336 | 18 | 161 | 6.4 | 19.3 | 0.00 | 0.00 | 0.00 | 100 | 1002.5 |
| 20260509222623 | 18 | 158 | 4.8 | 17.7 | 0.00 | 0.00 | 0.00 | 100 | 1002.6 |
| 20260509222120 | 18 | 125 | 8.0 | 17.7 | 0.00 | 0.00 | 0.00 | 100 | 1002.6 |
| 20260509221623 | 18 | 159 | 9.7 | 16.1 | 0.00 | 0.00 | 0.00 | 100 | 1002.6 |
| 20260509221121 | 18 | 121 | 8.0 | 17.7 | 0.00 | 0.00 | 0.00 | 100 | 1002.6 |
| 20260509220627 | 18 | 145 | 4.8 | 17.7 | 0.00 | 0.00 | 0.00 | 100 | 1002.6 |
| 20260509220121 | 18 | 90 | 3.2 | 11.3 | 0.00 | 0.00 | 0.00 | 100 | 1002.6 |
| 20260509215619 | 18 | 99 | 3.2 | 8.0 | 0.00 | 0.00 | 0.00 | 100 | 1002.8 |
| 20260509215332 | 19 | 146 | 1.6 | 6.4 | 0.00 | 0.00 | 0.00 | 100 | 1002.8 |
| 20260509214615 | 19 | 271 | 1.6 | 3.2 | 0.00 | 0.00 | 0.00 | 100 | 1002.7 |
| 20260509214113 | 19 | 271 | 1.6 | 4.8 | 0.00 | 0.00 | 0.00 | 100 | 1002.7 |
| 20260509213845 | 19 | 271 | 1.6 | 4.8 | 0.00 | 0.00 | 0.00 | 100 | 1002.7 |
| 20260509213112 | 19 | 268 | 1.6 | 6.4 | 0.00 | 0.00 | 0.00 | 100 | 1002.6 |
| 20260509212615 | 19 | 268 | 3.2 | 6.4 | 0.00 | 0.00 | 0.00 | 100 | 1002.6 |
| 20260509212114 | 20 | 269 | 3.2 | 14.5 | 0.00 | 0.00 | 0.00 | 100 | 1002.5 |
| 20260509211843 | 20 | 242 | 6.4 | 14.5 | 0.00 | 0.00 | 0.00 | 100 | 1002.4 |
| 20260509211114 | 20 | 183 | 8.0 | 14.5 | 0.00 | 0.00 | 0.00 | 100 | 1002.5 |
| 20260509210617 | 20 | 153 | 11.3 | 19.3 | 0.00 | 0.00 | 0.00 | 100 | 1002.4 |
| 20260509210115 | 20 | 148 | 9.7 | 19.3 | 0.00 | 0.00 | 0.00 | 100 | 1002.5 |
| 20260509205620 | 20 | 170 | 4.8 | 17.7 | 0.00 | 0.00 | 0.00 | 100 | 1002.5 |
| 20260509205114 | 20 | 136 | 4.8 | 14.5 | 0.00 | 0.00 | 0.00 | 100 | 1002.5 |
| 20260509204617 | 20 | 98 | 4.8 | 16.1 | 0.00 | 0.00 | 0.00 | 100 | 1002.6 |
| 20260509204113 | 20 | 148 | 4.8 | 16.1 | 0.00 | 0.00 | 0.00 | 100 | 1002.5 |
| 20260509203614 | 20 | 131 | 9.7 | 12.9 | 0.00 | 0.00 | 0.00 | 100 | 1002.6 |
| 20260509203111 | 20 | 123 | 11.3 | 24.1 | 0.00 | 0.00 | 0.00 | 100 | 1002.5 |
| 20260509202842 | 20 | 138 | 6.4 | 24.1 | 0.00 | 0.00 | 0.00 | 99 | 1002.5 |
| 20260509202111 | 20 | 121 | 1.6 | 6.4 | 0.00 | 0.00 | 0.00 | 100 | 1002.5 |
| 20260509201112 | 21 | 80 | 4.8 | 24.1 | 0.00 | 0.00 | 0.00 | 100 | 1002.4 |
| 20260509200851 | 21 | 126 | 9.7 | 24.1 | 0.00 | 0.00 | 0.00 | 99 | 1002.3 |
| 20260509200113 | 21 | 172 | 11.3 | 24.1 | 0.00 | 0.00 | 0.00 | 99 | 1002.2 |
| 20260509195615 | 21 | 105 | 8.0 | 24.1 | 0.00 | 0.00 | 0.00 | 99 | 1002.1 |
| 20260509195111 | 21 | 61 | 6.4 | 14.5 | 0.00 | 0.00 | 0.00 | 99 | 1002.0 |
| 20260509194614 | 21 | 113 | 6.4 | 14.5 | 0.00 | 0.00 | 0.00 | 99 | 1002.0 |
| 20260509194112 | 21 | 126 | 6.4 | 14.5 | 0.00 | 0.00 | 0.00 | 98 | 1002.1 |
| 20260509193615 | 21 | 101 | 6.4 | 14.5 | 0.00 | 0.00 | 0.00 | 98 | 1002.2 |
| 20260509193112 | 21 | 113 | 8.0 | 14.5 | 0.00 | 0.00 | 0.00 | 98 | 1002.2 |
| 20260509192614 | 21 | 111 | 8.0 | 17.7 | 0.00 | 0.00 | 0.00 | 97 | 1002.1 |
| 20260509192111 | 21 | 139 | 9.7 | 17.7 | 0.00 | 0.00 | 0.00 | 97 | 1002.2 |
| 20260509191614 | 21 | 140 | 8.0 | 16.1 | 0.00 | 0.00 | 0.00 | 97 | 1002.2 |
| 20260509191111 | 21 | 101 | 8.0 | 16.1 | 0.00 | 0.00 | 0.00 | 97 | 1002.1 |
| 20260509190614 | 21 | 92 | 8.0 | 16.1 | 0.00 | 0.00 | 0.00 | 97 | 1002.0 |
| 20260509190111 | 21 | 138 | 8.0 | 14.5 | 0.00 | 0.00 | 0.00 | 97 | 1002.0 |
| 20260509185614 | 21 | 96 | 9.7 | 24.1 | 0.00 | 0.00 | 0.00 | 96 | 1001.9 |
| 20260509185110 | 21 | 174 | 9.7 | 24.1 | 0.00 | 0.00 | 0.00 | 96 | 1001.9 |
| 20260509184607 | 21 | 143 | 11.3 | 24.1 | 0.00 | 0.00 | 0.00 | 97 | 1001.9 |
| 20260509184107 | 21 | 109 | 11.3 | 24.1 | 0.00 | 0.00 | 0.00 | 97 | 1001.9 |
| 20260509183827 | 21 | 121 | 9.7 | 24.1 | 0.00 | 0.00 | 0.00 | 97 | 1001.9 |
| 20260509183106 | 21 | 119 | 6.4 | 24.1 | 0.00 | 0.00 | 0.00 | 99 | 1001.9 |
| 20260509182823 | 21 | 74 | 3.2 | 9.7 | 0.00 | 0.00 | 0.00 | 100 | 1001.8 |
| 20260509182106 | 22 | 118 | 3.2 | 8.0 | 0.00 | 0.00 | 0.00 | 100 | 1001.9 |
| 20260509181606 | 22 | 73 | 1.6 | 6.4 | 0.00 | 0.00 | 0.00 | 100 | 1001.8 |
| 20260509181120 | 22 | 117 | 0.0 | 4.8 | 0.00 | 0.00 | 0.00 | 100 | 1001.8 |
| 20260509180601 | 22 | 117 | 0.0 | 4.8 | 0.00 | 0.00 | 0.00 | 100 | 1001.7 |
| 20260509175556 | 22 | 118 | 1.6 | 3.2 | 0.00 | 0.00 | 0.00 | 99 | 1001.6 |
| 20260509175322 | 22 | 118 | 1.6 | 9.7 | 0.00 | 0.00 | 0.00 | 98 | 1001.5 |
| 20260509174556 | 22 | 118 | 3.2 | 9.7 | 0.00 | 0.00 | 0.00 | 97 | 1001.5 |
| 20260509174049 | 22 | 108 | 3.2 | 12.9 | 0.00 | 0.00 | 0.00 | 97 | 1001.4 |
| 20260509173812 | 22 | 105 | 3.2 | 12.9 | 0.00 | 0.00 | 0.00 | 96 | 1001.3 |
| 20260509173311 | 22 | 281 | 1.6 | 9.7 | 0.00 | 0.00 | 0.00 | 97 | 1001.3 |
| 20260509172816 | 22 | 136 | 1.6 | 4.8 | 0.00 | 0.05 | 0.00 | 96 | 1001.3 |
| 20260509172048 | 22 | 136 | 1.6 | 6.4 | 0.00 | 0.08 | 0.00 | 97 | 1001.4 |
| 20260509171543 | 22 | 135 | 1.6 | 6.4 | 0.00 | 0.13 | 0.00 | 96 | 1001.3 |
| 20260509171053 | 22 | 135 | 3.2 | 11.3 | 0.00 | 0.15 | 0.00 | 96 | 1001.2 |
| 20260509170534 | 22 | 134 | 4.8 | 11.3 | 0.00 | 0.15 | 0.00 | 96 | 1001.1 |
| 20260509170033 | 22 | 134 | 4.8 | 9.7 | 0.00 | 0.15 | 0.00 | 96 | 1001.1 |
| 20260509165533 | 22 | 148 | 6.4 | 14.5 | 0.00 | 0.15 | 0.00 | 96 | 1001.0 |
| 20260509165034 | 22 | 175 | 6.4 | 14.5 | 0.00 | 0.15 | 0.00 | 96 | 1001.0 |
| 20260509164534 | 22 | 142 | 8.0 | 17.7 | 0.00 | 0.15 | 0.00 | 96 | 1001.0 |
| 20260509164033 | 22 | 134 | 8.0 | 17.7 | 0.00 | 0.15 | 0.00 | 95 | 1001.0 |
| 20260509163533 | 22 | 135 | 8.0 | 22.5 | 0.00 | 0.15 | 0.00 | 95 | 1001.0 |
| 20260509163033 | 22 | 126 | 9.7 | 22.5 | 0.00 | 0.15 | 0.00 | 95 | 1001.1 |
| 20260509162753 | 22 | 166 | 12.9 | 19.3 | 0.00 | 0.15 | 0.00 | 94 | 1001.0 |
| 20260509162252 | 22 | 161 | 12.9 | 24.1 | 0.00 | 0.15 | 0.00 | 94 | 1001.0 |
| 20260509161754 | 22 | 165 | 12.9 | 24.1 | 0.00 | 0.15 | 0.00 | 95 | 1001.1 |
| 20260509161033 | 22 | 196 | 11.3 | 20.9 | 0.00 | 0.15 | 0.00 | 95 | 1001.2 |
| 20260509160533 | 22 | 168 | 11.3 | 22.5 | 0.00 | 0.15 | 0.00 | 94 | 1001.2 |
| 20260509160033 | 22 | 157 | 12.9 | 22.5 | 0.00 | 0.15 | 0.00 | 93 | 1001.2 |
| 20260509155534 | 23 | 132 | 9.7 | 17.7 | 0.00 | 0.15 | 0.00 | 94 | 1001.1 |
| 20260509155033 | 23 | 161 | 9.7 | 17.7 | 0.00 | 0.15 | 0.00 | 94 | 1001.1 |
| 20260509154534 | 23 | 142 | 11.3 | 20.9 | 0.00 | 0.15 | 0.00 | 94 | 1001.2 |
| 20260509154034 | 23 | 166 | 11.3 | 20.9 | 0.00 | 0.15 | 0.00 | 94 | 1001.2 |
| 20260509153534 | 23 | 139 | 9.7 | 22.5 | 0.00 | 0.15 | 0.00 | 94 | 1001.1 |
| 20260509153033 | 23 | 123 | 12.9 | 22.5 | 0.00 | 0.15 | 0.00 | 94 | 1001.2 |
| 20260509152534 | 23 | 182 | 12.9 | 25.7 | 0.00 | 0.15 | 0.00 | 94 | 1001.3 |
| 20260509152033 | 23 | 163 | 11.3 | 25.7 | 0.00 | 0.15 | 0.00 | 94 | 1001.3 |
| 20260509151533 | 23 | 130 | 11.3 | 19.3 | 0.00 | 0.15 | 0.00 | 94 | 1001.3 |
| 20260509151033 | 23 | 126 | 11.3 | 29.0 | 0.00 | 0.15 | 0.00 | 94 | 1001.3 |
| 20260509150533 | 23 | 115 | 11.3 | 29.0 | 0.00 | 0.15 | 0.00 | 93 | 1001.4 |
| 20260509150033 | 23 | 180 | 9.7 | 19.3 | 0.00 | 0.15 | 0.00 | 95 | 1001.4 |
| 20260509145758 | 23 | 111 | 9.7 | 19.3 | 0.00 | 0.15 | 0.00 | 94 | 1001.3 |
| 20260509145034 | 23 | 129 | 9.7 | 19.3 | 0.00 | 0.15 | 0.00 | 95 | 1001.3 |
| 20260509144534 | 23 | 104 | 12.9 | 25.7 | 0.00 | 0.15 | 0.00 | 95 | 1001.4 |
| 20260509144033 | 23 | 124 | 12.9 | 25.7 | 0.00 | 0.15 | 0.00 | 96 | 1001.4 |
| 20260509143533 | 23 | 80 | 11.3 | 24.1 | 0.00 | 0.15 | 0.00 | 96 | 1001.5 |
| 20260509143033 | 22 | 117 | 11.3 | 20.9 | 0.00 | 0.15 | 0.00 | 96 | 1001.5 |
| 20260509142754 | 22 | 163 | 11.3 | 20.9 | 0.00 | 0.15 | 0.00 | 97 | 1001.6 |
| 20260509142033 | 22 | 108 | 14.5 | 17.7 | 0.00 | 0.15 | 0.00 | 95 | 1001.7 |
| 20260509141533 | 22 | 196 | 16.1 | 27.4 | 0.00 | 0.15 | 0.00 | 95 | 1001.7 |
| 20260509141033 | 22 | 123 | 17.7 | 30.6 | 0.00 | 0.15 | 0.00 | 95 | 1001.7 |
| 20260509140534 | 22 | 154 | 16.1 | 30.6 | 0.00 | 0.15 | 0.00 | 95 | 1002.0 |
| 20260509140033 | 22 | 197 | 16.1 | 29.0 | 0.00 | 0.15 | 0.00 | 94 | 1002.1 |
| 20260509135534 | 22 | 134 | 12.9 | 25.7 | 0.00 | 0.15 | 0.00 | 94 | 1002.0 |
| 20260509135033 | 22 | 157 | 14.5 | 29.0 | 0.00 | 0.15 | 0.00 | 94 | 1002.0 |
| 20260509134755 | 22 | 163 | 16.1 | 29.0 | 0.00 | 0.15 | 0.00 | 94 | 1001.9 |
| 20260509134032 | 22 | 165 | 14.5 | 27.4 | 0.00 | 0.15 | 0.00 | 94 | 1001.9 |
| 20260509133532 | 22 | 98 | 14.5 | 25.7 | 0.00 | 0.15 | 0.00 | 93 | 1002.1 |
| 20260509133031 | 22 | 138 | 14.5 | 25.7 | 0.00 | 0.15 | 0.00 | 92 | 1002.0 |
| 20260509132532 | 22 | 172 | 14.5 | 25.7 | 0.00 | 0.15 | 0.00 | 92 | 1002.1 |
| 20260509132031 | 22 | 107 | 14.5 | 22.5 | 0.00 | 0.15 | 0.00 | 92 | 1002.1 |
| 20260509131532 | 21 | 122 | 14.5 | 24.1 | 0.00 | 0.15 | 0.00 | 92 | 1002.2 |
| 20260509131256 | 21 | 116 | 14.5 | 24.1 | 0.00 | 0.15 | 0.00 | 92 | 1002.3 |